Time;durP1;ratioP1;P1;durP2;ratioP2;P2;SDS_P1;SDS_P2;PMS_P1;PMS_P2;Temp;Humidity;BMP_temperature;BMP_pressure;BME280_temperature;BME280_humidity;BME280_pressure;Samples;Min_cycle;Max_cycle;Signal;HPM_P1;HPM_P2
2022/10/20 00:00:58;;;;;;;56.15;35.35;;;;;;;-144.47;100.00;61586.06;5023586;28;20061;-84
2022/10/20 00:03:25;;;;;;;57.05;36.45;;;;;;;-144.47;100.00;61586.06;5026203;28;20032;-84
2022/10/20 00:05:50;;;;;;;58.17;34.58;;;;;;;-144.47;100.00;61586.06;5026490;28;20055;-85
2022/10/20 00:08:16;;;;;;;53.10;34.85;;;;;;;-144.47;100.00;61586.06;5022666;28;20463;-84
2022/10/20 00:10:51;;;;;;;55.70;36.13;;;;;;;-144.47;100.00;61586.06;5030871;28;20070;-85
2022/10/20 00:13:16;;;;;;;54.97;36.17;;;;;;;-144.47;100.00;61586.06;5019363;28;20082;-84
2022/10/20 00:15:48;;;;;;;50.78;35.40;;;;;;;-144.47;100.00;61586.06;5025652;28;20037;-85
2022/10/20 00:18:13;;;;;;;53.53;35.45;;;;;;;-144.47;100.00;61586.06;5026249;28;20047;-85
2022/10/20 00:20:39;;;;;;;54.38;35.60;;;;;;;-144.47;100.00;61586.06;5004597;28;20362;-84
2022/10/20 00:23:04;;;;;;;57.63;36.85;;;;;;;-144.47;100.00;61586.06;5008076;28;20065;-86
2022/10/20 00:25:30;;;;;;;58.92;36.13;;;;;;;-144.47;100.00;61586.06;5022193;28;20057;-85
2022/10/20 00:27:55;;;;;;;55.55;35.80;;;;;;;-144.47;100.00;61586.06;5006729;28;20065;-85
2022/10/20 00:30:20;;;;;;;57.10;36.30;;;;;;;-144.47;100.00;61586.06;5029234;28;20068;-85
2022/10/20 00:32:46;;;;;;;59.60;36.33;;;;;;;-144.47;100.00;61586.06;5029372;28;20030;-85
2022/10/20 00:35:12;;;;;;;52.67;35.22;;;;;;;-144.47;100.00;61586.06;5006337;28;20038;-85
2022/10/20 00:37:37;;;;;;;61.42;38.72;;;;;;;-144.47;100.00;61586.06;5001618;28;20031;-85
2022/10/20 00:40:03;;;;;;;59.78;38.78;;;;;;;-144.47;100.00;61586.06;5013456;28;20634;-84
2022/10/20 00:42:28;;;;;;;61.53;38.95;;;;;;;-144.47;100.00;61586.06;5007494;28;20502;-85
2022/10/20 00:44:56;;;;;;;61.72;39.88;;;;;;;-144.47;100.00;61586.06;4993766;28;20037;-86
2022/10/20 00:47:40;;;;;;;60.55;38.90;;;;;;;-144.47;100.00;61586.06;5010245;28;20113;-85
2022/10/20 00:50:26;;;;;;;65.15;41.50;;;;;;;-144.47;100.00;61586.06;5015451;28;20108;-84
2022/10/20 00:52:53;;;;;;;69.82;42.05;;;;;;;-144.47;100.00;61586.06;5028390;28;20037;-86
2022/10/20 00:55:24;;;;;;;65.00;43.22;;;;;;;-144.47;100.00;61586.06;5011047;28;20099;-85
2022/10/20 00:57:51;;;;;;;74.75;43.83;;;;;;;-144.47;100.00;61586.06;5009900;28;20557;-86
2022/10/20 01:00:17;;;;;;;74.28;43.22;;;;;;;-144.47;100.00;61586.06;5011527;28;20044;-86
2022/10/20 01:02:43;;;;;;;72.22;44.13;;;;;;;-144.47;100.00;61586.06;4990366;28;20540;-86
2022/10/20 01:05:09;;;;;;;66.28;41.38;;;;;;;-144.47;100.00;61586.06;5010038;28;20446;-86
2022/10/20 01:07:35;;;;;;;67.68;41.17;;;;;;;-144.47;100.00;61586.06;5015299;28;20041;-86
2022/10/20 01:10:01;;;;;;;68.72;41.13;;;;;;;-144.47;100.00;61586.06;4988187;28;20435;-86
2022/10/20 01:12:45;;;;;;;66.22;41.90;;;;;;;-144.47;100.00;61586.06;4995213;28;20458;-87
2022/10/20 01:15:47;;;;;;;62.58;40.45;;;;;;;-144.47;100.00;61586.06;5009709;28;20367;-86
2022/10/20 01:18:22;;;;;;;64.05;42.22;;;;;;;-144.47;100.00;61586.06;5005509;28;20432;-85
2022/10/20 01:21:05;;;;;;;64.60;40.47;;;;;;;-144.47;100.00;61586.06;5010619;28;20482;-85
2022/10/20 01:24:04;;;;;;;64.28;40.13;;;;;;;-144.47;100.00;61586.06;5010158;28;20045;-84
2022/10/20 01:26:50;;;;;;;68.03;40.60;;;;;;;-144.47;100.00;61586.06;5017412;28;20053;-83
2022/10/20 01:29:29;;;;;;;69.95;42.95;;;;;;;-144.47;100.00;61586.06;5010136;28;20084;-85
2022/10/20 01:32:07;;;;;;;70.30;42.67;;;;;;;-144.47;100.00;61586.06;4993210;28;20487;-85
2022/10/20 01:35:09;;;;;;;65.40;41.70;;;;;;;-144.47;100.00;61586.06;5010348;28;20208;-86
2022/10/20 01:37:55;;;;;;;69.53;41.80;;;;;;;-144.47;100.00;61586.06;4993437;28;20052;-84
2022/10/20 01:40:47;;;;;;;66.55;42.42;;;;;;;-144.47;100.00;61586.06;5012707;28;20369;-86
2022/10/20 01:43:16;;;;;;;66.53;41.10;;;;;;;-144.47;100.00;61586.06;5011198;28;20042;-84
2022/10/20 01:45:45;;;;;;;77.00;42.63;;;;;;;-144.47;100.00;61586.06;5001304;28;20026;-85
2022/10/20 01:48:12;;;;;;;73.25;44.97;;;;;;;-144.47;100.00;61586.06;5010346;28;20497;-85
2022/10/20 01:50:41;;;;;;;76.60;46.17;;;;;;;-144.47;100.00;61586.06;5008658;28;20090;-86
2022/10/20 01:53:07;;;;;;;75.85;45.22;;;;;;;-144.47;100.00;61586.06;5012763;28;20053;-85
2022/10/20 01:55:33;;;;;;;75.35;45.42;;;;;;;-144.47;100.00;61586.06;5010121;28;20041;-85
2022/10/20 01:58:27;;;;;;;64.75;39.63;;;;;;;-144.47;100.00;61586.06;5013260;28;20536;-85
2022/10/20 02:01:08;;;;;;;64.25;39.75;;;;;;;-144.47;100.00;61586.06;5008893;28;20517;-84
2022/10/20 02:03:54;;;;;;;58.00;35.63;;;;;;;-144.47;100.00;61586.06;5012843;28;20037;-84
2022/10/20 02:06:32;;;;;;;66.75;38.25;;;;;;;-144.47;100.00;61586.06;5013670;28;20044;-84
2022/10/20 02:09:02;;;;;;;61.65;37.47;;;;;;;-144.47;100.00;61586.06;5008274;28;20089;-84
2022/10/20 02:11:40;;;;;;;63.05;35.47;;;;;;;-144.47;100.00;61586.06;5008125;28;20435;-84
2022/10/20 02:14:10;;;;;;;57.95;37.75;;;;;;;-144.47;100.00;61586.06;5011059;28;20436;-84
2022/10/20 02:16:44;;;;;;;52.28;35.88;;;;;;;-144.47;100.00;61586.06;5007778;28;20438;-84
2022/10/20 02:19:13;;;;;;;58.50;36.33;;;;;;;-144.47;100.00;61586.06;5006447;28;20133;-83
2022/10/20 02:21:39;;;;;;;54.85;35.75;;;;;;;-144.47;100.00;61586.06;5011728;28;20043;-84
2022/10/20 02:24:08;;;;;;;59.03;35.88;;;;;;;-144.47;100.00;61586.06;5020360;28;20442;-84
2022/10/20 02:26:36;;;;;;;53.22;35.10;;;;;;;-144.47;100.00;61586.06;5008746;28;20042;-84
2022/10/20 02:29:12;;;;;;;56.22;35.50;;;;;;;-144.47;100.00;61586.06;5009184;28;20066;-85
2022/10/20 02:31:38;;;;;;;53.75;34.78;;;;;;;-144.47;100.00;61586.06;5015576;28;20384;-85
2022/10/20 02:34:03;;;;;;;59.95;38.13;;;;;;;-144.47;100.00;61586.06;5010398;28;20053;-84
2022/10/20 02:36:29;;;;;;;57.95;36.58;;;;;;;-144.47;100.00;61586.06;5009960;28;20033;-85
2022/10/20 02:38:55;;;;;;;65.60;36.90;;;;;;;-144.47;100.00;61586.06;5004455;28;20467;-85
2022/10/20 02:41:20;;;;;;;53.83;34.88;;;;;;;-144.47;100.00;61586.06;5009509;28;20029;-83
2022/10/20 02:43:46;;;;;;;53.13;35.70;;;;;;;-144.47;100.00;61586.06;4978466;28;20176;-85
2022/10/20 02:46:11;;;;;;;51.03;34.83;;;;;;;-144.47;100.00;61586.06;5009823;28;20134;-85
2022/10/20 02:48:37;;;;;;;58.80;34.42;;;;;;;-144.47;100.00;61586.06;5011089;28;20405;-85
2022/10/20 02:51:05;;;;;;;56.67;35.70;;;;;;;-144.47;100.00;61586.06;4987149;28;20038;-86
2022/10/20 02:53:31;;;;;;;56.42;35.03;;;;;;;-144.47;100.00;61586.06;5012439;28;20041;-86
2022/10/20 02:55:57;;;;;;;50.17;33.38;;;;;;;-144.47;100.00;61586.06;4987729;28;20033;-87
2022/10/20 02:58:23;;;;;;;53.13;34.22;;;;;;;-144.47;100.00;61586.06;5008888;28;20078;-86
2022/10/20 03:00:50;;;;;;;49.47;33.90;;;;;;;-144.47;100.00;61586.06;4991109;28;20532;-85
2022/10/20 03:03:17;;;;;;;53.75;33.00;;;;;;;-144.47;100.00;61586.06;5011488;28;20073;-85
2022/10/20 03:05:43;;;;;;;56.45;34.80;;;;;;;-144.47;100.00;61586.06;4994508;28;20040;-86
2022/10/20 03:08:10;;;;;;;51.70;32.88;;;;;;;-144.47;100.00;61586.06;5008506;28;20050;-86
2022/10/20 03:10:37;;;;;;;57.20;36.75;;;;;;;-144.47;100.00;61586.06;4990615;28;20038;-86
2022/10/20 03:13:04;;;;;;;51.67;33.45;;;;;;;-144.47;100.00;61586.06;4991223;28;20357;-86
2022/10/20 03:15:30;;;;;;;57.17;36.22;;;;;;;-144.47;100.00;61586.06;4998993;28;20117;-87
2022/10/20 03:17:55;;;;;;;57.45;35.08;;;;;;;-144.47;100.00;61586.06;4996091;28;20065;-86
2022/10/20 03:20:21;;;;;;;55.00;35.17;;;;;;;-144.47;100.00;61586.06;5020058;28;20388;-86
2022/10/20 03:22:46;;;;;;;52.38;35.38;;;;;;;-144.47;100.00;61586.06;4993909;28;20033;-86
2022/10/20 03:25:11;;;;;;;55.00;36.10;;;;;;;-144.47;100.00;61586.06;5011113;28;20045;-85
2022/10/20 03:27:37;;;;;;;62.92;37.60;;;;;;;-144.47;100.00;61586.06;5005306;28;20052;-84
2022/10/20 03:30:02;;;;;;;60.53;37.95;;;;;;;-144.47;100.00;61586.06;5009840;28;20053;-86
2022/10/20 03:32:28;;;;;;;63.63;38.05;;;;;;;-144.47;100.00;61586.06;5013106;28;20038;-87
2022/10/20 03:34:53;;;;;;;59.65;36.55;;;;;;;-144.47;100.00;61586.06;5025544;28;20038;-87
2022/10/20 03:37:19;;;;;;;64.90;39.30;;;;;;;-144.47;100.00;61586.06;5009383;28;20030;-84
2022/10/20 03:39:44;;;;;;;58.85;36.75;;;;;;;-144.47;100.00;61586.06;5017198;28;20044;-85
2022/10/20 03:42:10;;;;;;;57.97;37.33;;;;;;;-144.47;100.00;61586.06;5022927;28;20034;-84
2022/10/20 03:44:35;;;;;;;57.72;37.83;;;;;;;-144.47;100.00;61586.06;5027353;28;20033;-84
2022/10/20 03:47:01;;;;;;;58.30;37.03;;;;;;;-144.47;100.00;61586.06;5033962;28;20034;-84
2022/10/20 03:49:26;;;;;;;58.13;36.67;;;;;;;-144.47;100.00;61586.06;5032024;28;20034;-84
2022/10/20 03:51:52;;;;;;;56.95;35.65;;;;;;;-144.47;100.00;61586.06;5039593;28;20052;-84
2022/10/20 03:54:18;;;;;;;55.75;37.40;;;;;;;-144.47;100.00;61586.06;5033205;28;20030;-85
2022/10/20 03:56:43;;;;;;;56.33;36.85;;;;;;;-144.47;100.00;61586.06;5042557;28;20030;-85
2022/10/20 03:59:10;;;;;;;58.47;35.65;;;;;;;-144.47;100.00;61586.06;5012388;28;20030;-85
2022/10/20 04:01:37;;;;;;;57.17;36.10;;;;;;;-144.47;100.00;61586.06;5022709;28;20022;-85
2022/10/20 04:04:04;;;;;;;53.60;35.58;;;;;;;-144.47;100.00;61586.06;5024743;28;20036;-86
2022/10/20 04:06:30;;;;;;;58.05;35.83;;;;;;;-144.47;100.00;61586.06;5031038;28;20042;-85
2022/10/20 04:08:56;;;;;;;61.35;36.45;;;;;;;-144.47;100.00;61586.06;5027876;28;20125;-84
2022/10/20 04:11:21;;;;;;;65.22;37.22;;;;;;;-144.47;100.00;61586.06;5023622;28;20112;-84
2022/10/20 04:13:47;;;;;;;56.85;37.63;;;;;;;-144.47;100.00;61586.06;5027197;28;20461;-84
2022/10/20 04:16:12;;;;;;;54.47;37.28;;;;;;;-144.47;100.00;61586.06;5014698;28;20061;-83
2022/10/20 04:18:38;;;;;;;55.53;37.70;;;;;;;-144.47;100.00;61586.06;5033708;28;20030;-82
2022/10/20 04:21:03;;;;;;;55.42;37.65;;;;;;;-144.47;100.00;61586.06;5012432;28;20033;-83
2022/10/20 04:23:29;;;;;;;51.00;36.00;;;;;;;-144.47;100.00;61586.06;5032074;28;20150;-84
2022/10/20 04:25:54;;;;;;;50.60;36.33;;;;;;;-144.47;100.00;61586.06;5009492;28;20474;-84
2022/10/20 04:28:19;;;;;;;48.63;36.92;;;;;;;-144.47;100.00;61586.06;5012070;28;20531;-84
2022/10/20 04:30:46;;;;;;;48.42;35.42;;;;;;;-144.47;100.00;61586.06;5027099;28;20087;-83
2022/10/20 04:33:13;;;;;;;52.75;36.70;;;;;;;-144.47;100.00;61586.06;5025818;28;20521;-84
2022/10/20 04:35:39;;;;;;;52.42;37.28;;;;;;;-144.47;100.00;61586.06;5025950;28;20607;-84
2022/10/20 04:38:05;;;;;;;51.10;35.60;;;;;;;-144.47;100.00;61586.06;5009977;28;20120;-84
2022/10/20 04:40:31;;;;;;;46.38;34.55;;;;;;;-144.47;100.00;61586.06;5029636;28;20030;-85
2022/10/20 04:42:59;;;;;;;49.10;37.10;;;;;;;-144.47;100.00;61586.06;5010646;28;20058;-85
2022/10/20 04:45:24;;;;;;;55.03;36.15;;;;;;;-144.47;100.00;61586.06;5035600;28;20041;-83
2022/10/20 04:47:50;;;;;;;49.22;35.63;;;;;;;-144.47;100.00;61586.06;5026916;28;20026;-83
2022/10/20 04:50:16;;;;;;;52.00;35.75;;;;;;;-144.47;100.00;61586.06;5016722;28;20481;-83
2022/10/20 04:52:41;;;;;;;51.33;36.05;;;;;;;-144.47;100.00;61586.06;5032242;28;20403;-83
2022/10/20 04:55:07;;;;;;;55.33;36.03;;;;;;;-144.47;100.00;61586.06;5036339;28;20102;-82
2022/10/20 04:57:32;;;;;;;51.30;36.53;;;;;;;-144.47;100.00;61586.06;5031886;28;20448;-84
2022/10/20 04:59:58;;;;;;;54.15;37.75;;;;;;;-144.47;100.00;61586.06;5032830;28;20059;-83
2022/10/20 05:02:23;;;;;;;57.63;37.58;;;;;;;-144.47;100.00;61586.06;5029984;28;20029;-83
2022/10/20 05:04:49;;;;;;;53.10;36.65;;;;;;;-144.47;100.00;61586.06;5023869;28;20026;-84
2022/10/20 05:07:14;;;;;;;55.47;36.25;;;;;;;-144.47;100.00;61586.06;5032522;28;20037;-84
2022/10/20 05:09:41;;;;;;;56.10;37.38;;;;;;;-144.47;100.00;61586.06;5014312;28;20159;-83
2022/10/20 05:12:07;;;;;;;55.88;37.13;;;;;;;-144.47;100.00;61586.06;5005096;28;20030;-83
2022/10/20 05:14:32;;;;;;;55.80;36.17;;;;;;;-144.47;100.00;61586.06;5031363;28;20090;-83
2022/10/20 05:16:58;;;;;;;58.25;38.20;;;;;;;-144.47;100.00;61586.06;5024514;28;20180;-82
2022/10/20 05:19:23;;;;;;;59.75;37.80;;;;;;;-144.47;100.00;61586.06;5035970;28;20085;-83
2022/10/20 05:21:49;;;;;;;57.10;37.65;;;;;;;-144.47;100.00;61586.06;5038267;28;20029;-85
2022/10/20 05:24:16;;;;;;;61.83;37.75;;;;;;;-144.47;100.00;61586.06;5044246;28;20089;-85
2022/10/20 05:26:42;;;;;;;60.05;37.65;;;;;;;-144.47;100.00;61586.06;5047609;28;20030;-86
2022/10/20 05:29:09;;;;;;;58.00;36.20;;;;;;;-144.47;100.00;61586.06;5027296;28;20036;-84
2022/10/20 05:31:37;;;;;;;61.88;38.25;;;;;;;-144.47;100.00;61586.06;5021120;28;20041;-85
2022/10/20 05:34:03;;;;;;;61.63;36.97;;;;;;;-144.47;100.00;61586.06;5040695;28;20045;-89
2022/10/20 05:36:28;;;;;;;63.63;38.00;;;;;;;-144.47;100.00;61586.06;5038714;28;20093;-87
2022/10/20 05:38:55;;;;;;;60.75;37.78;;;;;;;-144.47;100.00;61586.06;5018294;28;20081;-82
2022/10/20 05:41:25;;;;;;;62.58;37.45;;;;;;;-144.47;100.00;61586.06;5045162;28;20029;-83
2022/10/20 05:43:55;;;;;;;59.63;37.95;;;;;;;-144.47;100.00;61586.06;5037200;28;20028;-84
2022/10/20 05:46:22;;;;;;;;;;;;;;;-144.47;100.00;61586.06;5038774;28;20033;-82
2022/10/20 05:48:50;;;;;;;58.92;36.33;;;;;;;-144.47;100.00;61586.06;5016408;28;19921;-81
2022/10/20 05:51:20;;;;;;;54.83;35.33;;;;;;;-144.47;100.00;61586.06;5027502;28;20513;-84
2022/10/20 05:53:47;;;;;;;57.33;35.28;;;;;;;-144.47;100.00;61586.06;5029980;28;20033;-88
2022/10/20 05:56:15;;;;;;;53.92;34.65;;;;;;;-144.47;100.00;61586.06;5012956;28;20054;-87
2022/10/20 05:58:42;;;;;;;54.08;34.53;;;;;;;-144.47;100.00;61586.06;5025463;28;20149;-85
2022/10/20 06:01:24;;;;;;;53.83;34.20;;;;;;;-144.47;100.00;61586.06;5036404;28;20091;-85
2022/10/20 06:03:52;;;;;;;53.38;35.20;;;;;;;-144.47;100.00;61586.06;5031249;28;20061;-85
2022/10/20 06:06:19;;;;;;;54.22;35.03;;;;;;;-144.47;100.00;61586.06;5032012;28;20109;-83
2022/10/20 06:08:45;;;;;;;58.80;35.60;;;;;;;-144.47;100.00;61586.06;5027323;28;20037;-80
2022/10/20 06:11:11;;;;;;;50.50;34.08;;;;;;;-144.47;100.00;61586.06;5010632;28;20397;-86
2022/10/20 06:13:37;;;;;;;56.25;33.90;;;;;;;-144.47;100.00;61586.06;5024485;28;20072;-86
2022/10/20 06:16:08;;;;;;;53.72;34.63;;;;;;;-144.47;100.00;61586.06;5026052;28;20062;-87
2022/10/20 06:18:37;;;;;;;57.25;34.17;;;;;;;-144.47;100.00;61586.06;5023958;28;20041;-86
2022/10/20 06:21:09;;;;;;;54.00;34.97;;;;;;;-144.47;100.00;61586.06;5025981;28;20033;-86
2022/10/20 06:23:34;;;;;;;56.22;35.88;;;;;;;-144.47;100.00;61586.06;5007703;28;20038;-86
2022/10/20 06:26:06;;;;;;;57.78;36.53;;;;;;;-144.47;100.00;61586.06;5025775;28;20029;-87
2022/10/20 06:28:33;;;;;;;54.25;34.95;;;;;;;-144.47;100.00;61586.06;5028481;28;20478;-88
2022/10/20 06:30:59;;;;;;;50.53;34.90;;;;;;;-144.47;100.00;61586.06;5024303;28;20026;-88
2022/10/20 06:33:27;;;;;;;58.75;35.42;;;;;;;-144.47;100.00;61586.06;5025356;28;20387;-89
2022/10/20 06:35:59;;;;;;;57.67;36.35;;;;;;;-144.47;100.00;61586.06;5025916;28;20045;-89
2022/10/20 06:38:24;;;;;;;58.28;36.20;;;;;;;-144.47;100.00;61586.06;5034116;28;20095;-86
2022/10/20 06:40:49;;;;;;;55.65;36.20;;;;;;;-144.47;100.00;61586.06;5031654;28;20030;-87
2022/10/20 06:43:15;;;;;;;59.85;36.75;;;;;;;-144.47;100.00;61586.06;5031364;28;20037;-86
2022/10/20 06:45:40;;;;;;;60.67;36.70;;;;;;;-144.47;100.00;61586.06;5011151;28;20453;-87
2022/10/20 06:48:06;;;;;;;57.55;35.53;;;;;;;-144.47;100.00;61586.06;5021982;28;20033;-86
2022/10/20 06:50:33;;;;;;;61.60;36.05;;;;;;;-144.47;100.00;61586.06;5024499;28;20060;-87
2022/10/20 06:52:58;;;;;;;58.28;36.20;;;;;;;-144.47;100.00;61586.06;5023807;28;20133;-87
2022/10/20 06:55:24;;;;;;;59.95;36.53;;;;;;;-144.47;100.00;61586.06;5008959;28;20494;-87
2022/10/20 06:57:49;;;;;;;57.97;37.42;;;;;;;-144.47;100.00;61586.06;5031996;28;20039;-87
2022/10/20 07:00:16;;;;;;;59.33;38.42;;;;;;;-144.47;100.00;61586.06;5009012;28;20044;-87
2022/10/20 07:02:41;;;;;;;68.93;41.85;;;;;;;-144.47;100.00;61586.06;5027626;28;20034;-87
2022/10/20 07:05:07;;;;;;;63.25;40.92;;;;;;;-144.47;100.00;61586.06;5023959;28;20593;-88
2022/10/20 07:07:32;;;;;;;66.30;43.20;;;;;;;-144.47;100.00;61586.06;5022990;28;20042;-82
2022/10/20 07:09:58;;;;;;;65.45;40.72;;;;;;;-144.47;100.00;61586.06;5027036;28;20052;-86
2022/10/20 07:12:23;;;;;;;56.42;39.50;;;;;;;-144.47;100.00;61586.06;5028089;28;20504;-90
2022/10/20 07:14:50;;;;;;;61.88;42.45;;;;;;;-144.47;100.00;61586.06;5020493;28;20029;-84
2022/10/20 07:17:16;;;;;;;64.40;41.05;;;;;;;-144.47;100.00;61586.06;5030577;28;20060;-86
2022/10/20 07:19:41;;;;;;;62.88;40.97;;;;;;;-144.47;100.00;61586.06;5028925;28;20385;-86
2022/10/20 07:22:07;;;;;;;60.63;39.38;;;;;;;-144.47;100.00;61586.06;5039102;28;20034;-87
2022/10/20 07:24:32;;;;;;;64.28;40.47;;;;;;;-144.47;100.00;61586.06;5039651;28;20029;-82
2022/10/20 07:26:58;;;;;;;61.20;39.63;;;;;;;-144.47;100.00;61586.06;5031888;28;20038;-84
2022/10/20 07:29:23;;;;;;;64.05;38.58;;;;;;;-144.47;100.00;61586.06;5014436;28;20044;-81
2022/10/20 07:31:50;;;;;;;61.10;38.03;;;;;;;-144.47;100.00;61586.06;5026927;28;20032;-84
2022/10/20 07:34:16;;;;;;;64.05;39.47;;;;;;;-144.47;100.00;61586.06;5023644;28;20037;-84
2022/10/20 07:36:43;;;;;;;54.25;37.30;;;;;;;-144.47;100.00;61586.06;5025743;28;20041;-82
2022/10/20 07:39:11;;;;;;;63.33;38.95;;;;;;;-144.47;100.00;61586.06;5026114;28;20068;-82
2022/10/20 07:41:38;;;;;;;64.07;38.95;;;;;;;-144.47;100.00;61586.06;5015358;28;20038;-86
2022/10/20 07:44:04;;;;;;;66.85;41.60;;;;;;;-144.47;100.00;61586.06;5028709;28;20030;-81
2022/10/20 07:46:29;;;;;;;58.90;38.85;;;;;;;-144.47;100.00;61586.06;5031052;28;20038;-83
2022/10/20 07:48:55;;;;;;;60.92;39.33;;;;;;;-144.47;100.00;61586.06;5026975;28;20546;-82
2022/10/20 07:51:20;;;;;;;59.92;38.17;;;;;;;-144.47;100.00;61586.06;5034021;28;20026;-80
2022/10/20 07:53:47;;;;;;;59.78;40.35;;;;;;;-144.47;100.00;61586.06;5014741;28;20108;-83
2022/10/20 07:56:14;;;;;;;64.47;40.35;;;;;;;-144.47;100.00;61586.06;5035794;28;20089;-79
2022/10/20 07:58:40;;;;;;;64.70;40.92;;;;;;;-144.47;100.00;61586.06;5041092;28;20441;-80
2022/10/20 08:01:06;;;;;;;65.28;42.35;;;;;;;-144.47;100.00;61586.06;5031416;28;20034;-82
2022/10/20 08:03:32;;;;;;;62.00;40.08;;;;;;;-144.47;100.00;61586.06;5030868;28;20037;-82
2022/10/20 08:05:57;;;;;;;68.20;41.42;;;;;;;-144.47;100.00;61586.06;5031734;28;20040;-82
2022/10/20 08:08:23;;;;;;;67.32;42.08;;;;;;;-144.47;100.00;61586.06;5028631;28;20045;-81
2022/10/20 08:10:49;;;;;;;62.05;40.70;;;;;;;-144.47;100.00;61586.06;5012010;28;20390;-82
2022/10/20 08:13:14;;;;;;;69.38;42.78;;;;;;;-144.47;100.00;61586.06;5025919;28;20362;-81
2022/10/20 08:15:39;;;;;;;70.22;41.10;;;;;;;-144.47;100.00;61586.06;5016115;28;20045;-81
2022/10/20 08:18:05;;;;;;;65.32;42.90;;;;;;;-144.47;100.00;61586.06;5026793;28;20132;-83
2022/10/20 08:20:31;;;;;;;70.60;43.75;;;;;;;-144.47;100.00;61586.06;5027521;28;20044;-81
2022/10/20 08:22:57;;;;;;;67.55;43.20;;;;;;;-144.47;100.00;61586.06;5011281;28;20034;-80
2022/10/20 08:25:22;;;;;;;66.32;41.92;;;;;;;-144.47;100.00;61586.06;5025698;28;20129;-82
2022/10/20 08:27:48;;;;;;;65.22;40.78;;;;;;;-144.47;100.00;61586.06;5028456;28;20128;-82
2022/10/20 08:30:13;;;;;;;60.95;40.45;;;;;;;-144.47;100.00;61586.06;5027213;28;20452;-81
2022/10/20 08:32:39;;;;;;;64.68;39.63;;;;;;;-144.47;100.00;61586.06;5013542;28;20033;-85
2022/10/20 08:35:05;;;;;;;64.13;39.63;;;;;;;-144.47;100.00;61586.06;5024043;28;20038;-85
2022/10/20 08:37:30;;;;;;;61.28;39.25;;;;;;;-144.47;100.00;61586.06;5026996;28;20453;-83
2022/10/20 08:39:56;;;;;;;54.65;38.35;;;;;;;-144.47;100.00;61586.06;5029026;28;20112;-82
2022/10/20 08:42:22;;;;;;;66.57;40.40;;;;;;;-144.47;100.00;61586.06;5025716;28;20053;-82
2022/10/20 08:44:48;;;;;;;61.90;39.60;;;;;;;-144.47;100.00;61586.06;5029065;28;20057;-82
2022/10/20 08:47:25;;;;;;;56.88;38.35;;;;;;;-144.47;100.00;61586.06;5026871;28;20034;-83
2022/10/20 08:49:51;;;;;;;73.63;40.75;;;;;;;-144.47;100.00;61586.06;5026811;28;20036;-83
2022/10/20 08:52:17;;;;;;;60.80;38.92;;;;;;;-144.47;100.00;61586.06;5015696;28;20033;-81
2022/10/20 08:54:47;;;;;;;65.72;39.53;;;;;;;-144.47;100.00;61586.06;5021154;28;20034;-84
2022/10/20 08:57:23;;;;;;;66.82;39.28;;;;;;;-144.47;100.00;61586.06;5025463;28;20034;-82
2022/10/20 08:59:54;;;;;;;62.78;39.78;;;;;;;-144.47;100.00;61586.06;5017720;28;20382;-81
2022/10/20 09:02:21;;;;;;;66.35;40.00;;;;;;;-144.47;100.00;61586.06;5020513;28;20038;-81
2022/10/20 09:04:58;;;;;;;57.55;38.20;;;;;;;-144.47;100.00;61586.06;5022893;28;20036;-83
2022/10/20 09:07:30;;;;;;;63.05;37.97;;;;;;;-144.47;100.00;61586.06;5028227;28;20049;-80
2022/10/20 09:10:16;;;;;;;59.28;37.97;;;;;;;-144.47;100.00;61586.06;5024707;28;20058;-82
2022/10/20 09:12:44;;;;;;;58.85;38.65;;;;;;;-144.47;100.00;61586.06;5018495;28;20115;-81
2022/10/20 09:15:12;;;;;;;59.97;38.50;;;;;;;-144.47;100.00;61586.06;5022674;28;20104;-84
2022/10/20 09:17:41;;;;;;;61.88;37.88;;;;;;;-144.47;100.00;61586.06;5022973;28;20041;-84
2022/10/20 09:20:20;;;;;;;64.45;39.17;;;;;;;-144.47;100.00;61586.06;5020841;28;20559;-85
2022/10/20 09:22:46;;;;;;;63.60;38.85;;;;;;;-144.47;100.00;61586.06;5021876;28;20489;-85
2022/10/20 09:25:18;;;;;;;63.25;39.65;;;;;;;-144.47;100.00;61586.06;5028277;28;20393;-85
2022/10/20 09:27:44;;;;;;;60.78;37.95;;;;;;;-144.47;100.00;61586.06;5024935;28;20040;-84
2022/10/20 09:30:32;;;;;;;59.17;39.08;;;;;;;-144.47;100.00;61586.06;5020053;28;20029;-85
2022/10/20 09:32:57;;;;;;;65.13;40.65;;;;;;;-144.47;100.00;61586.06;5024004;28;20038;-82
2022/10/20 09:35:34;;;;;;;63.45;40.83;;;;;;;-144.47;100.00;61586.06;5030540;28;20441;-90
2022/10/20 09:38:34;;;;;;;66.82;40.55;;;;;;;-144.47;100.00;61586.06;5029961;28;20095;-90
2022/10/20 09:41:22;;;;;;;62.22;39.50;;;;;;;-144.47;100.00;61586.06;4989804;28;20049;-92
2022/10/20 09:44:05;;;;;;;64.90;42.25;;;;;;;-144.47;100.00;61586.06;5030775;28;20025;-86
2022/10/20 09:46:38;;;;;;;72.28;41.97;;;;;;;-144.47;100.00;61586.06;5033520;28;20056;-88
2022/10/20 09:49:06;;;;;;;73.80;42.72;;;;;;;-144.47;100.00;61586.06;5033403;28;20367;-85
2022/10/20 09:51:32;;;;;;;66.45;41.30;;;;;;;-144.47;100.00;61586.06;5031259;28;20036;-83
2022/10/20 09:54:18;;;;;;;61.88;41.08;;;;;;;-144.47;100.00;61586.06;5028855;28;20035;-85
2022/10/20 09:56:46;;;;;;;68.93;40.92;;;;;;;-144.47;100.00;61586.06;5025793;28;20117;-82
2022/10/20 09:59:26;;;;;;;71.43;41.67;;;;;;;-144.47;100.00;61586.06;5029935;28;20045;-81
2022/10/20 10:01:58;;;;;;;73.47;42.22;;;;;;;-144.47;100.00;61586.06;5029573;28;20122;-81
2022/10/20 10:04:35;;;;;;;68.60;42.10;;;;;;;-144.47;100.00;61586.06;5030068;28;20068;-82
2022/10/20 10:07:03;;;;;;;68.28;43.20;;;;;;;-144.47;100.00;61586.06;5027353;28;20557;-80
2022/10/20 10:09:34;;;;;;;77.65;43.53;;;;;;;-144.47;100.00;61586.06;5032173;28;20037;-80
2022/10/20 10:12:14;;;;;;;63.08;41.15;;;;;;;-144.47;100.00;61586.06;5026166;28;20040;-81
2022/10/20 10:14:55;;;;;;;70.03;44.17;;;;;;;-144.47;100.00;61586.06;5024049;28;20116;-84
2022/10/20 10:17:48;;;;;;;64.90;42.40;;;;;;;-144.47;100.00;61586.06;5017827;28;20154;-78
2022/10/20 10:20:13;;;;;;;66.78;41.28;;;;;;;-144.47;100.00;61586.06;5022342;28;20053;-80
2022/10/20 10:22:40;;;;;;;66.68;42.42;;;;;;;-144.47;100.00;61586.06;5025701;28;20037;-81
2022/10/20 10:25:12;;;;;;;72.30;44.35;;;;;;;-144.47;100.00;61586.06;5027817;28;20037;-80
2022/10/20 10:27:38;;;;;;;72.93;43.78;;;;;;;-144.47;100.00;61586.06;5035261;28;20034;-79
2022/10/20 10:30:34;;;;;;;69.35;43.35;;;;;;;-144.47;100.00;61586.06;5026611;28;20029;-79
2022/10/20 10:33:00;;;;;;;71.20;43.22;;;;;;;-144.47;100.00;61586.06;4990416;28;20137;-81
2022/10/20 10:35:35;;;;;;;73.43;43.30;;;;;;;-144.47;100.00;61586.06;5025748;28;20064;-81
2022/10/20 10:38:00;;;;;;;73.82;44.17;;;;;;;-144.47;100.00;61586.06;5029335;28;20033;-81
2022/10/20 10:40:35;;;;;;;67.75;43.70;;;;;;;-144.47;100.00;61586.06;5012495;28;20030;-79
2022/10/20 10:43:21;;;;;;;73.97;43.30;;;;;;;-144.47;100.00;61586.06;5023951;28;20037;-83
2022/10/20 10:45:58;;;;;;;69.35;42.40;;;;;;;-144.47;100.00;61586.06;5010703;28;20048;-82
2022/10/20 10:48:23;;;;;;;67.45;42.22;;;;;;;-144.47;100.00;61586.06;5016422;28;20050;-82
2022/10/20 10:51:04;;;;;;;67.20;43.15;;;;;;;-144.47;100.00;61586.06;5017731;28;20542;-81
2022/10/20 10:53:51;;;;;;;72.25;43.35;;;;;;;-144.47;100.00;61586.06;5023225;28;20040;-82
2022/10/20 10:56:47;;;;;;;75.88;44.03;;;;;;;-144.47;100.00;61586.06;5020476;28;20045;-81
2022/10/20 10:59:26;;;;;;;74.13;44.00;;;;;;;-144.47;100.00;61586.06;5021902;28;20472;-82
2022/10/20 11:02:13;;;;;;;72.13;44.47;;;;;;;-144.47;100.00;61586.06;5020284;28;20038;-81
2022/10/20 11:05:23;;;;;;;70.80;43.67;;;;;;;-144.47;100.00;61586.06;5029722;28;20123;-81